Coal Hollow, Illinois
Current Conditions -  °F | °C
As of 2:10 PM on Monday 26 Jan 2015 (Local Time) from KVYS Reporting Station
Overcast Overcast  
Wind Chill: 17°   Ceiling: 2700
Heat Index: 27°   Visibility: 10mi
Dew Point: 24°   Wind: 9mph
Humidity: 88%   Direction: 160°SSE
Pressure: 29.85"   Gusts: NA
Location:  41.3609°N, 89.3981°W
Report Text: KVYS 262010Z AUTO 16008KT 10SM BKN027 OVC035 M03/M05 A2985 RMK AO2 T10301047
Loading
Personal Weather Stations






























Interactive Weather Map New forecast layout! Learn more

10-Day Weather Forecast

Advertisements
Track Severe Weather on mobile